Nearby METAR Reports

 

KHQM - Hoquiam,WA, USA
Updated: Wed, 14-Nov-2018 4:53am PST
Haze, Overcast
Haze, Overcast
 Wind from SE
Wind: SE 8 mph , 13 km/h
Temperature: 52°F , 11°C
Dew Point: 46°F , 8°C
Humidity: 82%
Barometer: 30.26 inHg , 1024.7 hPa
Summary: Haze
Clouds: Overcast
Visibility: 5 miles , 8 km
Cloud details: Overcast 1700 ft
2018/11/14 12:53 KHQM 141253Z AUTO 13007KT 5SM HZ OVC017 11/08 A3026 RMK AO2 RAB29E43 SLP249 P0000 T01060078